createdAt,value
2017-12-04T15:16:29.954Z,8.05
2017-12-04T15:18:59.159Z,8.08
2017-12-04T15:21:28.367Z,8.07
2017-12-04T15:23:57.878Z,8.11
2017-12-04T15:26:27.115Z,8.07
2017-12-04T15:28:56.312Z,8.04
2017-12-04T15:31:25.519Z,8.02
2017-12-04T15:33:54.771Z,8.01
2017-12-04T15:36:24.796Z,7.99
2017-12-04T15:38:54.738Z,7.91
2017-12-04T15:41:23.943Z,7.89
2017-12-04T15:43:53.152Z,7.83
2017-12-04T15:46:22.383Z,7.79
2017-12-04T15:48:51.604Z,7.75
2017-12-04T15:51:21.681Z,7.74
2017-12-04T15:53:50.893Z,7.74
2017-12-04T15:56:20.185Z,7.71
2017-12-04T15:58:49.416Z,7.59
2017-12-04T16:01:19.524Z,7.61
2017-12-04T16:03:49.527Z,7.54
2017-12-04T16:06:18.742Z,7.55
2017-12-04T16:08:48.696Z,7.62
2017-12-04T16:11:17.905Z,7.63
2017-12-04T16:13:47.128Z,7.61
2017-12-04T16:16:16.344Z,7.64
2017-12-04T16:18:46.348Z,7.56
2017-12-04T16:21:15.597Z,7.57
2017-12-04T16:23:45.615Z,7.56
2017-12-04T16:26:14.859Z,7.56
2017-12-04T16:28:44.077Z,7.64
2017-12-04T16:31:13.325Z,7.68
2017-12-04T16:33:42.540Z,7.67
2017-12-04T16:36:11.785Z,7.68
2017-12-04T16:38:41.039Z,7.73
2017-12-04T16:41:10.235Z,7.73
2017-12-04T16:43:39.485Z,7.76
2017-12-04T16:46:08.697Z,7.78
2017-12-04T16:48:37.947Z,7.79
2017-12-04T16:51:07.944Z,7.79
2017-12-04T16:53:37.159Z,7.82
2017-12-04T16:56:06.383Z,7.82
2017-12-04T16:58:36.372Z,7.81
2017-12-04T17:01:05.638Z,7.74
2017-12-04T17:03:34.864Z,7.72
2017-12-04T17:06:04.835Z,7.75
2017-12-04T17:08:34.193Z,7.78
2017-12-04T17:11:03.391Z,7.78
2017-12-04T17:13:33.388Z,7.78
2017-12-04T17:16:02.913Z,7.77
2017-12-04T17:18:32.185Z,7.79
2017-12-04T17:21:01.450Z,7.74
2017-12-04T17:23:30.652Z,7.71
2017-12-04T17:25:59.887Z,7.69
2017-12-04T17:28:29.424Z,7.69
2017-12-04T17:30:58.687Z,7.68
2017-12-04T17:33:27.894Z,7.63
2017-12-04T17:35:57.122Z,7.66
2017-12-04T17:38:26.322Z,7.64
2017-12-04T17:40:55.559Z,7.61
2017-12-04T17:43:24.784Z,7.65
2017-12-04T17:45:54.818Z,7.63
2017-12-04T17:48:24.832Z,7.65
2017-12-04T17:50:54.893Z,7.63
2017-12-04T17:53:24.156Z,7.68
2017-12-04T17:55:54.164Z,7.69
2017-12-04T17:58:24.126Z,7.68
2017-12-04T18:00:53.398Z,7.66
2017-12-04T18:03:22.599Z,7.64
2017-12-04T18:05:51.806Z,7.70
2017-12-04T18:08:21.017Z,7.72
2017-12-04T18:10:50.221Z,7.70
2017-12-04T18:13:19.516Z,7.69
2017-12-04T18:15:48.746Z,7.71
2017-12-04T18:18:17.981Z,7.69
2017-12-04T18:20:47.177Z,7.68
2017-12-04T18:23:17.174Z,7.70
2017-12-04T18:25:47.171Z,7.69
2017-12-04T18:28:17.223Z,7.72
2017-12-04T18:30:46.458Z,7.70
2017-12-04T18:33:15.768Z,7.70
2017-12-04T18:35:44.959Z,7.69
2017-12-04T18:38:14.249Z,7.72
2017-12-04T18:40:43.458Z,7.75
2017-12-04T18:43:12.743Z,7.77
2017-12-04T18:45:41.940Z,7.77
2017-12-04T18:48:11.149Z,7.77
2017-12-04T18:50:40.377Z,7.71
2017-12-04T18:53:09.600Z,7.71
2017-12-04T18:55:38.821Z,7.62
2017-12-04T18:58:08.076Z,7.61
2017-12-04T19:00:37.326Z,7.58
2017-12-04T19:03:08.295Z,7.52
2017-12-04T19:05:37.586Z,7.48
2017-12-04T19:08:06.933Z,7.49
2017-12-04T19:10:36.971Z,7.49
2017-12-04T19:13:06.226Z,7.54
2017-12-04T19:15:36.179Z,7.56
2017-12-04T19:18:05.501Z,7.57
2017-12-04T19:20:34.683Z,7.58
2017-12-04T19:23:03.976Z,7.61
2017-12-04T19:25:33.251Z,7.64
2017-12-04T19:28:02.461Z,7.69
2017-12-04T19:30:31.683Z,7.73
2017-12-04T19:33:00.899Z,7.74
2017-12-04T19:35:30.171Z,7.70
2017-12-04T19:37:59.522Z,7.73
2017-12-04T19:40:29.579Z,7.75
2017-12-04T19:42:58.850Z,7.77
2017-12-04T19:45:28.136Z,7.76
2017-12-04T19:47:57.624Z,7.76
2017-12-04T19:50:26.825Z,7.74
2017-12-04T19:52:56.039Z,7.76
2017-12-04T19:55:26.411Z,7.78
2017-12-04T19:57:55.635Z,7.76
2017-12-04T20:00:25.869Z,7.78
2017-12-04T20:02:55.201Z,7.72
2017-12-04T20:05:24.434Z,7.78
2017-12-04T20:07:53.791Z,7.87
2017-12-04T20:10:23.859Z,7.84
2017-12-04T20:12:53.157Z,7.87
2017-12-04T20:15:22.462Z,7.88
2017-12-04T20:17:51.708Z,7.87
2017-12-04T20:20:20.990Z,7.86
2017-12-04T20:22:50.228Z,7.87
2017-12-04T20:25:19.529Z,7.89
2017-12-04T20:27:48.803Z,7.88
2017-12-04T20:30:17.992Z,7.88
2017-12-04T20:32:47.961Z,7.94
2017-12-04T20:35:17.212Z,7.94
2017-12-04T20:37:47.217Z,7.89
2017-12-04T20:40:16.459Z,7.87
2017-12-04T20:42:45.766Z,7.88
2017-12-04T20:45:15.035Z,7.91
2017-12-04T20:47:45.026Z,7.93
2017-12-04T20:50:14.298Z,7.90
2017-12-04T20:52:43.459Z,7.91
2017-12-04T20:55:12.752Z,7.88
2017-12-04T20:57:42.312Z,7.81
2017-12-04T21:00:11.582Z,7.81
2017-12-04T21:02:40.846Z,7.80
2017-12-04T21:05:10.115Z,7.81
2017-12-04T21:07:51.834Z,7.84
2017-12-04T21:10:39.503Z,7.84
2017-12-04T21:13:26.490Z,7.81
2017-12-04T21:16:26.623Z,7.81
2017-12-04T21:18:55.850Z,7.81
2017-12-04T21:21:25.165Z,7.85
2017-12-04T21:23:54.347Z,7.88
2017-12-04T21:26:23.607Z,7.82
2017-12-04T21:28:52.833Z,7.83
2017-12-04T21:31:22.152Z,7.89
2017-12-04T21:33:52.122Z,7.90
2017-12-04T21:36:22.129Z,7.90
2017-12-04T21:38:51.435Z,7.88
2017-12-04T21:41:20.683Z,7.93
2017-12-04T21:43:50.061Z,7.93
2017-12-04T21:46:19.242Z,7.94
2017-12-04T21:48:48.564Z,7.95
2017-12-04T21:51:17.785Z,7.96
2017-12-04T21:53:47.041Z,7.96
2017-12-04T21:56:16.260Z,7.96
2017-12-04T21:58:45.475Z,8.00
2017-12-04T22:01:14.849Z,8.05
2017-12-04T22:03:44.075Z,8.03
2017-12-04T22:06:13.310Z,8.03
2017-12-04T22:08:43.285Z,8.04
2017-12-04T22:11:12.526Z,8.04
2017-12-04T22:13:42.501Z,8.00
2017-12-04T22:16:11.784Z,8.01
2017-12-04T22:18:41.165Z,7.97
2017-12-04T22:21:11.233Z,7.93
2017-12-04T22:23:40.486Z,7.95
2017-12-04T22:26:09.703Z,7.97
2017-12-04T22:28:38.906Z,7.94
2017-12-04T22:31:08.152Z,7.95
2017-12-04T22:33:38.157Z,7.95
2017-12-04T22:36:08.111Z,7.97
2017-12-04T22:38:37.317Z,7.95
2017-12-04T22:41:06.528Z,7.99
2017-12-04T22:43:35.784Z,8.03
2017-12-04T22:46:04.972Z,8.01
2017-12-04T22:48:34.186Z,8.02
2017-12-04T22:51:03.670Z,7.96
2017-12-04T22:53:32.880Z,7.92
2017-12-04T22:56:02.230Z,7.88
2017-12-04T22:58:31.434Z,7.89
2017-12-04T23:01:00.654Z,7.87
2017-12-04T23:03:30.643Z,7.86
2017-12-04T23:05:59.973Z,7.91
2017-12-04T23:08:29.955Z,7.89
2017-12-04T23:10:59.231Z,7.95
2017-12-04T23:13:28.426Z,7.93
2017-12-04T23:15:57.638Z,7.88
2017-12-04T23:18:26.826Z,7.83
